Time;durP1;ratioP1;P1;durP2;ratioP2;P2;SDS_P1;SDS_P2;PMS_P1;PMS_P2;Temp;Humidity;BMP_temperature;BMP_pressure;BME280_temperature;BME280_humidity;BME280_pressure;Samples;Min_cycle;Max_cycle;Signal;HPM_P1;HPM_P2
2021/09/30 00:00:12;;;;;;;;;2.25;1.00;;;;;14.13;57.75;102590.69;4916290;28;45361;-61
2021/09/30 00:02:38;;;;;;;;;1.00;1.00;;;;;14.09;57.91;102592.63;4919045;28;45373;-62
2021/09/30 00:05:05;;;;;;;;;0.00;0.00;;;;;14.07;57.82;102583.88;4917601;28;45299;-61
2021/09/30 00:07:31;;;;;;;;;1.75;0.00;;;;;14.08;57.89;102587.41;4920903;28;45173;-63
2021/09/30 00:09:57;;;;;;;;;0.00;0.00;;;;;14.07;57.92;102596.28;4915992;28;45253;-61
2021/09/30 00:12:27;;;;;;;;;1.75;0.75;;;;;14.07;57.94;102591.84;4918801;28;45238;-61
2021/09/30 00:15:00;;;;;;;;;1.50;0.00;;;;;14.06;57.86;102597.19;4916025;28;45488;-62
2021/09/30 00:41:59;;;;;;;;;1.00;1.00;;;;;13.87;58.93;102579.44;4917278;28;45328;-63
2021/09/30 00:50:31;;;;;;;;;1.00;1.00;;;;;13.80;59.31;102585.94;4914630;28;45402;-62
2021/09/30 01:34:00;;;;;;;;;1.50;1.50;;;;;13.52;60.24;102549.22;4923527;28;45523;-62
2021/09/30 02:31:28;;;;;;;;;0.00;0.00;;;;;13.36;60.01;102554.28;4922643;28;45726;-62
2021/09/30 02:58:33;;;;;;;;;11.00;1.50;;;;;13.36;60.08;102519.88;4925800;28;45263;-62
2021/09/30 03:01:05;;;;;;;;;0.00;0.00;;;;;13.37;60.07;102518.94;4925477;28;45538;-61
2021/09/30 03:03:34;;;;;;;;;3.75;0.75;;;;;13.38;60.19;102519.81;4925070;28;45628;-61
2021/09/30 03:06:00;;;;;;;;;3.25;1.00;;;;;13.37;60.07;102520.72;4925618;28;45411;-62
2021/09/30 03:08:28;;;;;;;;;1.75;0.00;;;;;13.34;60.07;102523.50;4924216;28;45341;-62
2021/09/30 03:10:55;;;;;;;;;0.50;0.00;;;;;13.33;60.03;102529.72;4925655;28;45392;-62
2021/09/30 03:13:27;;;;;;;;;0.50;0.50;;;;;13.32;60.05;102522.69;4925386;28;45903;-62
2021/09/30 03:16:05;;;;;;;;;0.00;0.00;;;;;13.31;59.58;102526.28;4925471;28;45351;-61
2021/09/30 03:18:50;;;;;;;;;1.00;0.00;;;;;13.30;60.26;102536.00;4925085;28;45169;-62
2021/09/30 03:23:47;;;;;;;;;1.00;0.00;;;;;13.28;60.38;102548.44;4925432;28;46107;-62
2021/09/30 03:26:16;;;;;;;;;1.00;0.50;;;;;13.27;60.41;102544.09;4925058;28;45416;-62
2021/09/30 03:28:42;;;;;;;;;0.25;0.00;;;;;13.26;60.53;102546.78;4925319;28;45304;-62
2021/09/30 03:31:10;;;;;;;;;1.50;1.00;;;;;13.26;60.07;102542.34;4925061;28;45480;-62
2021/09/30 03:33:36;;;;;;;;;3.00;0.00;;;;;13.26;60.77;102544.97;4925137;28;45591;-62
2021/09/30 03:36:02;;;;;;;;;0.50;0.50;;;;;13.26;60.69;102536.19;4924969;28;45404;-62
2021/09/30 03:38:29;;;;;;;;;1.50;0.50;;;;;13.26;60.55;102530.91;4925092;28;45345;-62
2021/09/30 03:40:54;;;;;;;;;2.00;2.00;;;;;13.25;60.36;102540.63;4924936;28;45550;-61
2021/09/30 03:43:20;;;;;;;;;2.50;1.00;;;;;13.21;60.48;102543.47;4924841;28;45217;-62
2021/09/30 03:45:46;;;;;;;;;6.50;4.50;;;;;13.16;60.67;102546.25;4924724;28;45487;-62
2021/09/30 03:48:11;;;;;;;;;3.00;1.00;;;;;13.10;61.03;102544.72;4925050;28;45277;-62
2021/09/30 03:53:17;;;;;;;;;1.00;1.00;;;;;13.05;60.84;102554.66;4925027;28;45392;-62
2021/09/30 03:56:10;;;;;;;;;3.75;1.00;;;;;13.02;61.12;102551.25;4924683;28;45355;-62
2021/09/30 04:01:12;;;;;;;;;2.00;1.00;;;;;12.99;61.19;102554.91;4924604;28;45424;-62
2021/09/30 04:03:38;;;;;;;;;0.00;0.00;;;;;12.99;61.48;102554.03;4923538;28;46307;-62
2021/09/30 04:06:04;;;;;;;;;0.75;0.00;;;;;12.98;61.58;102557.59;4924907;28;45388;-62
2021/09/30 04:08:30;;;;;;;;;2.50;2.00;;;;;12.91;61.54;102557.00;4924595;28;45226;-62
2021/09/30 04:10:56;;;;;;;;;3.00;1.00;;;;;12.88;61.63;102559.78;4924976;28;45297;-62
2021/09/30 04:13:22;;;;;;;;;3.50;1.25;;;;;12.86;61.86;102558.94;4924592;28;45304;-62
2021/09/30 04:15:50;;;;;;;;;2.00;2.00;;;;;12.83;61.67;102556.44;4924543;28;45181;-62
2021/09/30 04:18:16;;;;;;;;;2.25;0.75;;;;;12.80;61.79;102562.72;4924143;28;45323;-62
2021/09/30 04:20:42;;;;;;;;;1.00;1.00;;;;;12.77;61.93;102570.75;4924600;28;45471;-62
2021/09/30 04:23:07;;;;;;;;;2.50;2.00;;;;;12.77;62.05;102562.81;4924214;28;45331;-62
2021/09/30 04:25:33;;;;;;;;;1.00;1.00;;;;;12.80;62.14;102564.50;4924327;28;45391;-62
2021/09/30 04:27:58;;;;;;;;;2.00;1.00;;;;;12.79;61.73;102563.59;4924174;28;45576;-63
2021/09/30 04:30:24;;;;;;;;;1.75;0.75;;;;;12.78;61.99;102559.25;4924368;28;45431;-63
2021/09/30 04:32:49;;;;;;;;;1.75;1.75;;;;;12.77;61.97;102564.59;4923838;28;45651;-62
2021/09/30 04:35:15;;;;;;;;;1.50;1.00;;;;;12.74;62.09;102565.59;4924243;28;45246;-62
2021/09/30 04:37:41;;;;;;;;;2.25;1.50;;;;;12.74;62.10;102575.31;4924291;28;45238;-63
2021/09/30 04:40:07;;;;;;;;;4.75;1.75;;;;;12.72;62.17;102567.44;4924358;28;45234;-63
2021/09/30 04:42:33;;;;;;;;;7.00;2.75;;;;;12.74;62.56;102562.09;4923749;28;45303;-62
2021/09/30 04:44:59;;;;;;;;;4.50;2.00;;;;;12.75;62.27;102547.94;4924220;28;45346;-62
2021/09/30 04:47:24;;;;;;;;;5.00;2.25;;;;;12.78;62.30;102553.97;4923839;28;45276;-62
2021/09/30 04:49:50;;;;;;;;;2.75;1.50;;;;;12.77;62.30;102556.66;4924400;28;45397;-62
2021/09/30 04:52:15;;;;;;;;;3.25;2.50;;;;;12.73;62.26;102552.44;4923874;28;45556;-62
2021/09/30 04:54:41;;;;;;;;;1.50;1.00;;;;;12.68;62.43;102549.97;4924024;28;45300;-62
2021/09/30 04:57:07;;;;;;;;;1.50;1.00;;;;;12.62;62.53;102547.53;4922754;28;45323;-62
2021/09/30 04:59:33;;;;;;;;;2.25;2.00;;;;;12.61;62.71;102544.97;4924048;28;45409;-62
2021/09/30 05:01:59;;;;;;;;;11.00;4.75;;;;;12.58;62.64;102551.25;4923779;28;45365;-62
2021/09/30 05:04:25;;;;;;;;;15.25;5.00;;;;;12.53;62.81;102554.06;4923665;28;45230;-62
2021/09/30 05:06:52;;;;;;;;;8.75;2.00;;;;;12.51;62.78;102545.34;4923796;28;45602;-62
2021/09/30 05:09:18;;;;;;;;;1.75;1.75;;;;;12.53;62.98;102547.91;4923926;28;45481;-62
2021/09/30 05:11:51;;;;;;;;;6.75;2.00;;;;;12.55;62.96;102551.34;4923712;28;45269;-62
2021/09/30 05:14:16;;;;;;;;;4.25;2.00;;;;;12.53;63.08;102547.91;4923673;28;45233;-62
2021/09/30 05:16:42;;;;;;;;;2.50;2.00;;;;;12.51;63.37;102550.63;4906350;28;45468;-62
2021/09/30 05:19:07;;;;;;;;;9.50;4.50;;;;;12.48;63.13;102555.16;4923698;28;45212;-62
2021/09/30 05:21:33;;;;;;;;;9.75;4.50;;;;;12.46;63.12;102557.84;4923479;28;45291;-62
2021/09/30 05:23:58;;;;;;;;;12.00;5.25;;;;;12.44;63.60;102554.41;4924026;28;45581;-62
2021/09/30 05:26:27;;;;;;;;;9.50;5.00;;;;;12.48;63.56;102557.78;4923663;28;45511;-63
2021/09/30 05:28:53;;;;;;;;;5.50;2.00;;;;;12.53;63.46;102558.47;4923780;28;45252;-62
2021/09/30 05:31:18;;;;;;;;;11.50;4.00;;;;;12.55;63.59;102552.22;4923158;28;45957;-62
2021/09/30 05:33:44;;;;;;;;;5.25;3.00;;;;;12.54;63.53;102558.41;4923362;28;45457;-62
2021/09/30 05:36:10;;;;;;;;;11.75;3.00;;;;;12.56;63.52;102555.75;4923607;28;45247;-62
2021/09/30 05:38:35;;;;;;;;;3.75;3.00;;;;;12.53;63.49;102559.34;4923333;28;45333;-62
2021/09/30 05:41:00;;;;;;;;;4.75;3.00;;;;;12.50;63.59;102561.25;4923179;28;45400;-62
2021/09/30 05:43:35;;;;;;;;;5.00;3.00;;;;;12.48;63.81;102558.69;4923240;28;45380;-62
2021/09/30 05:46:02;;;;;;;;;10.00;5.50;;;;;12.49;63.70;102563.03;4923068;28;45258;-62
2021/09/30 05:48:28;;;;;;;;;4.00;4.00;;;;;12.51;63.63;102565.63;4923260;28;45332;-62
2021/09/30 05:50:55;;;;;;;;;8.50;3.00;;;;;12.52;63.86;102572.63;4923065;28;45349;-62
2021/09/30 05:53:21;;;;;;;;;12.00;3.00;;;;;12.52;63.91;102568.19;4923311;28;45471;-64
2021/09/30 05:55:47;;;;;;;;;6.00;4.50;;;;;12.46;64.08;102563.13;4923042;28;45303;-69
2021/09/30 05:58:13;;;;;;;;;5.50;3.00;;;;;12.47;63.69;102562.22;4923258;28;45555;-63
2021/09/30 06:13:53;;;;;;;;;9.50;2.25;;;;;12.64;64.08;102564.25;4922937;28;45385;-61
2021/09/30 06:16:22;;;;;;;;;4.00;3.00;;;;;12.64;63.80;102573.91;4922792;28;45313;-64
2021/09/30 06:18:48;;;;;;;;;7.25;2.75;;;;;12.66;63.69;102567.69;4922619;28;45156;-61
2021/09/30 06:21:13;;;;;;;;;9.00;4.25;;;;;12.71;63.74;102565.69;4919652;28;46061;-61
2021/09/30 06:23:39;;;;;;;;;4.00;3.00;;;;;12.75;63.49;102571.75;4918289;28;45483;-62
2021/09/30 06:26:05;;;;;;;;;2.75;2.75;;;;;12.79;63.48;102568.91;4918391;28;45351;-62
2021/09/30 06:28:31;;;;;;;;;7.25;3.75;;;;;12.86;63.45;102573.03;4918401;28;45454;-62
2021/09/30 06:30:56;;;;;;;;;4.00;2.50;;;;;12.93;63.01;102567.50;4916679;28;45464;-62
2021/09/30 06:33:24;;;;;;;;;4.75;3.00;;;;;13.00;63.12;102569.84;4918898;28;45327;-62
2021/09/30 06:35:50;;;;;;;;;4.50;2.25;;;;;13.08;62.70;102569.53;4917058;28;45249;-62
2021/09/30 06:38:16;;;;;;;;;11.50;6.25;;;;;13.14;62.85;102564.00;4920686;28;45513;-62
2021/09/30 06:40:41;;;;;;;;;4.50;4.00;;;;;13.20;62.46;102558.50;4917237;28;46238;-62
2021/09/30 06:43:07;;;;;;;;;5.25;4.00;;;;;13.22;62.38;102556.63;4918993;28;45416;-62
2021/09/30 06:45:32;;;;;;;;;5.25;4.00;;;;;13.25;62.63;102559.16;4917394;28;45254;-62
2021/09/30 06:47:58;;;;;;;;;6.00;3.50;;;;;13.28;62.43;102559.03;4917284;28;45461;-62
2021/09/30 06:50:24;;;;;;;;;2.50;2.00;;;;;13.32;62.27;102559.75;4918502;28;45823;-62
2021/09/30 06:52:49;;;;;;;;;2.50;2.00;;;;;13.29;61.78;102555.47;4922273;28;45463;-62
2021/09/30 06:55:15;;;;;;;;;5.00;3.00;;;;;13.27;61.62;102553.78;4917335;28;45538;-62
2021/09/30 06:57:40;;;;;;;;;3.25;2.25;;;;;13.30;61.82;102548.38;4920406;28;45387;-62
2021/09/30 07:00:09;;;;;;;;;2.00;2.00;;;;;13.33;61.83;102551.75;4917354;28;45519;-62
2021/09/30 07:02:37;;;;;;;;;1.75;1.00;;;;;13.38;61.74;102555.06;4921389;28;45254;-62
2021/09/30 07:05:04;;;;;;;;;4.00;3.75;;;;;13.44;61.11;102550.47;4919556;28;45350;-62
2021/09/30 07:07:30;;;;;;;;;3.50;3.00;;;;;13.49;61.71;102537.88;4917323;28;45362;-62
2021/09/30 07:09:55;;;;;;;;;6.00;3.00;;;;;13.55;61.65;102540.25;4918783;28;46198;-62
2021/09/30 07:12:21;;;;;;;;;3.00;2.00;;;;;13.60;61.05;102540.94;4920518;28;45272;-62
2021/09/30 07:14:47;;;;;;;;;2.00;2.00;;;;;13.62;60.85;102534.63;4919256;28;45340;-62
2021/09/30 07:17:12;;;;;;;;;4.75;2.00;;;;;13.67;60.81;102537.09;4919329;28;45345;-62
2021/09/30 07:19:38;;;;;;;;;4.25;4.00;;;;;13.74;60.50;102541.16;4916745;28;45422;-62
2021/09/30 07:22:06;;;;;;;;;6.00;3.25;;;;;13.75;60.40;102545.56;4917343;28;45266;-62
2021/09/30 07:24:33;;;;;;;;;5.75;3.00;;;;;13.78;60.32;102544.56;4918848;28;45321;-62
2021/09/30 07:27:00;;;;;;;;;4.00;2.25;;;;;13.85;60.06;102557.47;4921712;28;45895;-61
2021/09/30 07:29:26;;;;;;;;;4.50;3.00;;;;;13.91;59.97;102548.41;4919184;28;47774;-61
2021/09/30 07:31:52;;;;;;;;;10.50;4.50;;;;;13.96;59.89;102556.97;4916759;28;45430;-62
2021/09/30 07:34:17;;;;;;;;;47.00;28.25;;;;;14.02;59.95;102553.22;4916644;28;45395;-61
2021/09/30 07:36:45;;;;;;;;;19.25;11.50;;;;;14.06;60.04;102552.13;4915718;28;45483;-61
2021/09/30 07:39:12;;;;;;;;;12.50;6.50;;;;;14.10;59.46;102557.22;4919680;28;46871;-62
2021/09/30 07:41:40;;;;;;;;;11.75;6.00;;;;;14.14;59.31;102558.84;4916502;28;45305;-62
2021/09/30 07:44:06;;;;;;;;;10.25;4.00;;;;;14.20;59.22;102562.97;4915541;28;45418;-62
2021/09/30 07:46:33;;;;;;;;;7.00;4.00;;;;;14.25;59.37;102555.69;4916481;28;45602;-62
2021/09/30 07:48:59;;;;;;;;;11.00;4.00;;;;;14.28;59.00;102550.22;4916219;28;45419;-62
2021/09/30 07:51:25;;;;;;;;;6.00;4.00;;;;;14.33;59.09;102557.97;4916642;28;45201;-62
2021/09/30 07:53:50;;;;;;;;;6.00;5.00;;;;;14.38;59.03;102548.03;4916785;28;45298;-62
2021/09/30 07:56:16;;;;;;;;;6.50;4.25;;;;;14.42;58.83;102544.31;4917503;28;45491;-62
2021/09/30 07:58:42;;;;;;;;;9.50;4.00;;;;;14.50;58.90;102542.19;4917822;28;45417;-63
2021/09/30 08:01:08;;;;;;;;;6.50;5.50;;;;;14.59;58.47;102539.09;4919530;28;45325;-62
2021/09/30 08:03:35;;;;;;;;;5.50;4.50;;;;;14.69;58.19;102550.13;4918900;28;45526;-63
2021/09/30 08:06:00;;;;;;;;;6.00;5.00;;;;;14.81;58.13;102554.84;4918815;28;45553;-63
2021/09/30 08:08:26;;;;;;;;;8.00;5.00;;;;;14.94;58.31;102547.16;4917020;28;45456;-63
2021/09/30 08:10:51;;;;;;;;;5.25;4.75;;;;;15.05;58.24;102551.00;4917430;28;45412;-63
2021/09/30 08:13:17;;;;;;;;;6.25;4.75;;;;;15.09;57.62;102559.69;4916311;28;45425;-63
2021/09/30 08:15:42;;;;;;;;;5.75;4.75;;;;;15.11;57.33;102560.47;4916217;28;45468;-63
2021/09/30 08:18:08;;;;;;;;;12.50;5.75;;;;;15.13;57.40;102560.38;4916304;28;46245;-63
2021/09/30 08:20:34;;;;;;;;;8.00;4.75;;;;;15.16;57.26;102560.22;4917432;28;45556;-63
2021/09/30 08:23:00;;;;;;;;;10.75;4.50;;;;;15.18;57.19;102564.53;4918028;28;45252;-63
2021/09/30 08:25:25;;;;;;;;;8.50;4.50;;;;;15.20;57.00;102561.81;4920069;28;45180;-62
2021/09/30 08:27:51;;;;;;;;;8.50;5.25;;;;;15.24;56.88;102571.31;4918812;28;45397;-63
2021/09/30 08:30:17;;;;;;;;;3.25;3.00;;;;;15.30;56.40;102574.53;4918473;28;45230;-62
2021/09/30 08:32:43;;;;;;;;;4.75;2.50;;;;;15.34;56.05;102561.97;4898656;28;45230;-63
2021/09/30 08:35:09;;;;;;;;;2.75;2.00;;;;;15.36;55.65;102565.41;4916113;28;45371;-63
2021/09/30 08:37:36;;;;;;;;;3.25;2.50;;;;;15.34;55.62;102565.50;4917535;28;45531;-63
2021/09/30 08:40:03;;;;;;;;;2.00;0.00;;;;;15.36;55.61;102562.75;4920051;28;45321;-62
2021/09/30 08:42:29;;;;;;;;;1.00;1.00;;;;;15.39;55.00;102562.59;4919428;28;45330;-62
2021/09/30 08:44:57;;;;;;;;;4.00;1.00;;;;;15.39;55.17;102565.25;4915764;28;45263;-61
2021/09/30 08:47:22;;;;;;;;;1.75;0.25;;;;;15.41;55.39;102559.88;4915181;28;45986;-62
2021/09/30 08:49:48;;;;;;;;;5.00;1.00;;;;;15.42;55.03;102546.53;4915163;28;45283;-62
2021/09/30 08:52:14;;;;;;;;;2.00;1.00;;;;;15.48;54.95;102554.19;4915688;28;45223;-62
2021/09/30 08:54:39;;;;;;;;;2.00;2.00;;;;;15.51;54.82;102551.34;4916191;28;45375;-61
2021/09/30 08:57:06;;;;;;;;;1.25;0.00;;;;;15.52;54.99;102547.75;4915476;28;45648;-62
2021/09/30 08:59:32;;;;;;;;;2.75;1.00;;;;;15.56;54.79;102540.47;4915336;28;45528;-61
2021/09/30 09:02:05;;;;;;;;;0.75;0.75;;;;;15.58;54.47;102542.13;4915286;28;45456;-62
2021/09/30 09:04:31;;;;;;;;;1.75;1.00;;;;;15.64;54.39;102538.34;4917508;28;45611;-62
2021/09/30 09:07:08;;;;;;;;;1.25;1.00;;;;;15.70;53.72;102531.84;4916787;28;45590;-62
2021/09/30 09:09:35;;;;;;;;;2.00;1.00;;;;;15.73;53.63;102529.91;4915392;28;45504;-62
2021/09/30 09:12:07;;;;;;;;;0.25;0.00;;;;;15.77;53.26;102528.78;4921996;28;45309;-62
2021/09/30 09:14:37;;;;;;;;;1.00;0.00;;;;;15.84;53.41;102522.19;4923637;28;45510;-60
2021/09/30 09:17:09;;;;;;;;;1.50;0.00;;;;;15.89;52.95;102519.31;4912239;28;45385;-61
2021/09/30 09:19:37;;;;;;;;;2.00;0.00;;;;;15.92;52.84;102524.47;4917376;28;46303;-61
2021/09/30 09:22:15;;;;;;;;;2.25;0.00;;;;;15.94;53.12;102524.38;4920588;28;45302;-60
2021/09/30 09:25:01;;;;;;;;;3.25;0.00;;;;;15.98;52.72;102520.63;4915371;28;45395;-61
2021/09/30 09:27:43;;;;;;;;;1.50;0.50;;;;;15.94;52.52;102519.06;4914048;28;46234;-61
2021/09/30 09:30:29;;;;;;;;;0.00;0.00;;;;;15.98;52.49;102518.81;4898028;28;45193;-62
2021/09/30 09:33:28;;;;;;;;;3.00;0.75;;;;;16.02;51.93;102519.50;4918940;28;45405;-61
2021/09/30 09:35:58;;;;;;;;;0.50;0.00;;;;;16.03;51.28;102523.88;4914620;28;45557;-60
2021/09/30 09:38:31;;;;;;;;;0.50;0.00;;;;;16.02;51.12;102517.69;4918824;28;45537;-61
2021/09/30 09:41:05;;;;;;;;;1.00;0.00;;;;;16.02;50.86;102515.03;4914677;28;45472;-60
2021/09/30 09:43:41;;;;;;;;;0.00;0.00;;;;;16.06;51.09;102515.75;4916939;28;45419;-61
2021/09/30 09:46:08;;;;;;;;;4.00;0.25;;;;;16.09;51.12;102516.44;4915626;28;45199;-61
2021/09/30 09:48:35;;;;;;;;;1.00;0.00;;;;;16.15;50.62;102521.41;4914267;28;45376;-60
2021/09/30 09:51:07;;;;;;;;;1.50;0.50;;;;;16.21;50.60;102522.03;4916786;28;45553;-59
2021/09/30 09:53:34;;;;;;;;;2.75;1.00;;;;;16.25;50.89;102520.91;4911322;28;45361;-60
2021/09/30 09:56:18;;;;;;;;;0.50;0.00;;;;;16.30;50.29;102524.19;4916257;28;45569;-62
2021/09/30 09:58:58;;;;;;;;;0.00;0.00;;;;;16.33;50.00;102519.53;4915230;28;46571;-63
2021/09/30 10:01:38;;;;;;;;;0.25;0.00;;;;;16.41;50.70;102513.81;4914630;28;45543;-61
2021/09/30 10:04:04;;;;;;;;;0.25;0.25;;;;;16.51;50.51;102506.16;4918011;28;45744;-61
2021/09/30 10:06:33;;;;;;;;;2.00;2.00;;;;;16.56;50.09;102512.94;4916647;28;45289;-60
2021/09/30 10:09:00;;;;;;;;;0.75;0.75;;;;;16.58;49.63;102507.53;4922475;28;45534;-61
2021/09/30 10:11:27;;;;;;;;;2.00;0.00;;;;;16.61;49.51;102518.03;4917708;28;45366;-61
2021/09/30 10:13:55;;;;;;;;;1.00;0.00;;;;;16.69;49.64;102513.16;4917437;28;45552;-62
2021/09/30 10:16:25;;;;;;;;;2.00;0.25;;;;;16.76;49.34;102517.19;4918027;28;45339;-61
2021/09/30 10:18:55;;;;;;;;;0.75;0.00;;;;;16.84;49.09;102519.41;4921825;28;46341;-61
2021/09/30 10:21:21;;;;;;;;;1.00;0.00;;;;;16.90;48.75;102514.56;4920310;28;45281;-62
2021/09/30 10:23:57;;;;;;;;;0.00;0.00;;;;;16.98;49.20;102508.81;4917540;28;45321;-62
2021/09/30 10:26:34;;;;;;;;;0.75;0.00;;;;;17.03;48.43;102507.59;4918272;28;45470;-59
2021/09/30 10:29:00;;;;;;;;;0.25;0.00;;;;;17.04;47.57;102511.13;4916798;28;46185;-61
2021/09/30 10:31:33;;;;;;;;;0.00;0.00;;;;;17.03;47.73;102514.72;4918276;28;45712;-60
2021/09/30 10:34:03;;;;;;;;;14.50;13.25;;;;;17.05;47.77;102514.63;4916726;28;45411;-62
2021/09/30 10:36:33;;;;;;;;;1.00;0.25;;;;;17.05;47.49;102499.53;4919678;28;45484;-62
2021/09/30 10:39:22;;;;;;;;;0.00;0.00;;;;;17.08;47.63;102495.84;4918863;28;45569;-59
2021/09/30 10:41:52;;;;;;;;;0.00;0.00;;;;;17.10;47.86;102489.47;4918318;28;45471;-62
2021/09/30 10:44:21;;;;;;;;;1.00;0.75;;;;;17.19;47.71;102493.38;4919822;28;45423;-62
2021/09/30 10:46:50;;;;;;;;;0.25;0.00;;;;;17.25;47.44;102493.88;4917185;28;45481;-62
2021/09/30 10:49:32;;;;;;;;;2.25;0.00;;;;;17.29;47.21;102487.41;4916922;28;45653;-62
2021/09/30 10:52:15;;;;;;;;;0.75;0.00;;;;;17.30;46.74;102473.19;4917393;28;45435;-60
2021/09/30 10:54:42;;;;;;;;;2.00;1.00;;;;;17.36;47.36;102471.94;4916882;28;45284;-64
2021/09/30 10:57:36;;;;;;;;;0.75;0.00;;;;;17.46;47.23;102470.44;4917278;28;45254;-61
2021/09/30 11:00:09;;;;;;;;;3.75;0.00;;;;;17.47;46.84;102460.63;4916832;28;45463;-61
2021/09/30 11:03:10;;;;;;;;;0.25;0.00;;;;;17.51;46.80;102460.34;4919876;28;45566;-61
2021/09/30 11:05:38;;;;;;;;;0.25;0.00;;;;;17.55;47.14;102450.38;4841195;29;45392;-60
2021/09/30 11:08:24;;;;;;;;;1.00;1.00;;;;;17.65;47.02;102445.31;4901877;28;45250;-61
2021/09/30 11:11:08;;;;;;;;;6.00;1.25;;;;;17.71;46.96;102435.19;4916819;28;45603;-60
2021/09/30 11:13:39;;;;;;;;;0.50;0.00;;;;;17.78;46.42;102443.66;4918498;28;45345;-60
2021/09/30 11:16:07;;;;;;;;;0.75;0.00;;;;;17.78;46.48;102441.84;4915936;28;45340;-60
2021/09/30 11:18:46;;;;;;;;;1.00;0.25;;;;;17.80;46.48;102439.06;4918303;28;45371;-60
2021/09/30 11:24:00;;;;;;;;;2.50;0.75;;;;;17.81;46.71;102427.44;4917054;28;45302;-60
2021/09/30 11:26:27;;;;;;;;;1.50;0.00;;;;;17.86;46.69;102428.03;4919373;28;45385;-60
2021/09/30 11:28:54;;;;;;;;;1.25;0.00;;;;;17.84;46.17;102414.78;4918910;28;45559;-60
2021/09/30 11:31:29;;;;;;;;;1.25;0.75;;;;;17.85;46.40;102416.50;4916679;28;45451;-61
2021/09/30 11:34:00;;;;;;;;;3.50;2.00;;;;;17.92;45.97;102413.44;4916412;28;45236;-60
2021/09/30 11:36:34;;;;;;;;;48.50;35.75;;;;;17.95;45.78;102419.44;4918717;28;45371;-60
2021/09/30 11:39:01;;;;;;;;;0.00;0.00;;;;;17.93;45.46;102420.47;4918233;28;45356;-61
2021/09/30 11:41:35;;;;;;;;;4.25;1.00;;;;;17.90;45.55;102426.88;4921062;28;45427;-59
2021/09/30 11:44:01;;;;;;;;;0.75;0.00;;;;;17.88;45.48;102422.59;4916302;28;45451;-59
2021/09/30 11:46:33;;;;;;;;;0.00;0.00;;;;;17.88;45.18;102417.25;4917571;28;45384;-61
2021/09/30 11:49:01;;;;;;;;;0.25;0.00;;;;;17.88;45.22;102414.59;4917747;28;45586;-61
2021/09/30 11:51:33;;;;;;;;;1.25;0.00;;;;;17.93;45.04;102421.38;4918499;28;45434;-60
2021/09/30 11:53:59;;;;;;;;;1.00;0.00;;;;;17.94;44.66;102406.22;4918730;28;45396;-61
2021/09/30 11:56:24;;;;;;;;;1.00;0.00;;;;;17.91;44.96;102399.25;4919835;28;45332;-60
2021/09/30 11:58:59;;;;;;;;;1.00;0.00;;;;;17.95;45.14;102400.78;4917505;28;45325;-60
2021/09/30 12:01:35;;;;;;;;;3.00;0.00;;;;;18.06;45.30;102397.41;4915134;28;45384;-60
2021/09/30 12:04:02;;;;;;;;;22.00;22.00;;;;;18.16;45.43;102403.00;4916111;28;45324;-60
2021/09/30 12:06:47;;;;;;;;;1.00;0.00;;;;;18.22;45.43;102392.81;4915052;28;45390;-61
2021/09/30 12:09:14;;;;;;;;;0.00;0.00;;;;;18.22;44.73;102386.59;4915450;28;45530;-62
2021/09/30 12:11:56;;;;;;;;;2.75;0.00;;;;;18.22;44.29;102378.59;4898471;28;46811;-61
2021/09/30 12:14:22;;;;;;;;;2.50;1.00;;;;;18.23;44.68;102364.31;4914899;28;45360;-60
2021/09/30 12:17:00;;;;;;;;;17.25;12.25;;;;;18.29;44.86;102367.44;4916722;28;45448;-60
2021/09/30 12:19:34;;;;;;;;;1.50;0.00;;;;;18.41;44.72;102352.44;4915315;28;45249;-61
2021/09/30 12:22:01;;;;;;;;;5.75;3.75;;;;;18.45;44.17;102348.59;4915461;28;45494;-60
2021/09/30 12:24:28;;;;;;;;;1.00;0.00;;;;;18.48;44.19;102348.38;4914890;28;45503;-61
2021/09/30 12:26:55;;;;;;;;;2.00;1.00;;;;;18.51;43.74;102350.84;4915465;28;45492;-60
2021/09/30 12:29:21;;;;;;;;;0.75;0.00;;;;;18.50;43.03;102346.50;4917517;28;45454;-60
2021/09/30 12:32:04;;;;;;;;;0.00;0.00;;;;;18.53;43.22;102340.06;4919055;28;45466;-61
2021/09/30 12:34:30;;;;;;;;;1.00;0.00;;;;;18.53;42.86;102346.28;4915029;28;45409;-61
2021/09/30 12:36:56;;;;;;;;;0.00;0.00;;;;;18.55;42.81;102331.00;4915161;28;45357;-62
2021/09/30 12:39:26;;;;;;;;;0.00;0.00;;;;;18.55;42.62;102332.81;4918229;28;45501;-60
2021/09/30 12:41:53;;;;;;;;;1.00;0.00;;;;;18.58;43.03;102343.31;4917766;28;46114;-60
2021/09/30 12:44:20;;;;;;;;;0.00;0.00;;;;;18.64;42.82;102329.53;4917454;28;45169;-60
2021/09/30 12:46:54;;;;;;;;;5.00;4.25;;;;;18.69;42.49;102332.78;4915598;28;45378;-60
2021/09/30 12:49:20;;;;;;;;;16.00;12.25;;;;;18.68;41.92;102333.72;4915371;28;45299;-60
2021/09/30 12:51:46;;;;;;;;;0.00;0.00;;;;;18.69;41.25;102330.97;4915319;28;45354;-59
2021/09/30 12:54:12;;;;;;;;;0.00;0.00;;;;;18.71;41.55;102319.31;4919170;28;45457;-60
2021/09/30 12:56:38;;;;;;;;;1.00;0.00;;;;;18.67;41.44;102321.34;4915299;28;45334;-60
2021/09/30 12:59:14;;;;;;;;;0.00;0.00;;;;;18.65;41.29;102321.47;4916821;28;45325;-61
2021/09/30 13:01:41;;;;;;;;;0.00;0.00;;;;;18.66;41.23;102316.97;4914965;28;45919;-61
2021/09/30 13:04:24;;;;;;;;;0.75;0.00;;;;;18.67;40.97;102311.53;4915995;28;45791;-61
2021/09/30 13:07:06;;;;;;;;;0.50;0.00;;;;;18.72;41.14;102305.84;4917916;28;45607;-59
2021/09/30 13:09:32;;;;;;;;;0.00;0.00;;;;;18.74;41.62;102295.09;4916754;28;45329;-60
2021/09/30 13:12:03;;;;;;;;;0.25;0.00;;;;;18.77;41.69;102292.19;4916338;28;45276;-62
2021/09/30 13:14:43;;;;;;;;;0.25;0.00;;;;;18.82;41.20;102298.09;4915951;28;45705;-59
2021/09/30 13:17:08;;;;;;;;;2.25;0.00;;;;;18.82;41.21;102280.25;4899967;28;45407;-60
2021/09/30 13:19:57;;;;;;;;;2.75;0.00;;;;;18.83;40.98;102275.75;4914454;28;45487;-59
2021/09/30 13:22:27;;;;;;;;;0.00;0.00;;;;;18.84;40.44;102275.66;4914482;28;45542;-61
2021/09/30 13:24:54;;;;;;;;;0.00;0.00;;;;;18.87;41.31;102275.44;4916644;28;45421;-60
2021/09/30 13:27:24;;;;;;;;;1.00;0.00;;;;;18.89;40.60;102270.84;4914145;28;45266;-60
2021/09/30 13:29:50;;;;;;;;;0.00;0.00;;;;;18.88;40.35;102262.94;4915899;28;45466;-60
2021/09/30 13:32:17;;;;;;;;;0.00;0.00;;;;;18.87;39.48;102272.75;4914542;28;45480;-58
2021/09/30 13:34:43;;;;;;;;;1.00;0.00;;;;;18.80;39.50;102263.50;4914055;28;45330;-61
2021/09/30 13:37:09;;;;;;;;;0.00;0.00;;;;;18.80;39.54;102258.16;4916340;28;45404;-59
2021/09/30 13:39:35;;;;;;;;;1.00;0.00;;;;;18.74;39.60;102255.06;4916149;28;45729;-59
2021/09/30 13:42:00;;;;;;;;;0.50;0.00;;;;;18.74;40.20;102255.91;4913612;28;45466;-61
2021/09/30 13:44:26;;;;;;;;;0.00;0.00;;;;;18.78;40.12;102243.19;4916798;28;45443;-61
2021/09/30 13:46:52;;;;;;;;;1.25;0.00;;;;;18.88;40.22;102246.91;4914956;28;45731;-61
2021/09/30 13:49:17;;;;;;;;;0.00;0.00;;;;;18.98;40.06;102244.47;4916615;28;45446;-62
2021/09/30 13:51:43;;;;;;;;;0.25;0.25;;;;;19.05;40.81;102246.59;4898969;28;46561;-60
2021/09/30 13:54:08;;;;;;;;;4.00;0.50;;;;;19.08;40.50;102243.69;4918560;28;45452;-61
2021/09/30 13:56:34;;;;;;;;;0.00;0.00;;;;;19.08;40.46;102242.84;4914924;28;45478;-59
2021/09/30 13:59:00;;;;;;;;;1.50;0.00;;;;;19.00;40.25;102235.38;4916214;28;45503;-59
2021/09/30 14:01:26;;;;;;;;;2.00;0.00;;;;;18.94;40.57;102212.63;4913727;28;46025;-60
2021/09/30 14:03:53;;;;;;;;;2.00;0.00;;;;;18.99;40.71;102214.13;4915446;28;45433;-59
2021/09/30 14:06:19;;;;;;;;;1.00;0.00;;;;;19.05;40.31;102211.88;4914016;28;45347;-60
2021/09/30 14:08:45;;;;;;;;;0.00;0.00;;;;;19.10;40.70;102209.72;4915270;28;45341;-60
2021/09/30 14:11:13;;;;;;;;;0.00;0.00;;;;;19.12;40.49;102209.63;4915032;28;45664;-60
2021/09/30 14:13:39;;;;;;;;;1.00;1.00;;;;;19.17;40.87;102194.94;4916308;28;45464;-59
2021/09/30 14:16:05;;;;;;;;;1.00;0.00;;;;;19.22;40.85;102186.63;4916162;28;45406;-60
2021/09/30 14:18:31;;;;;;;;;1.50;0.00;;;;;19.28;40.79;102183.50;4918467;28;45439;-60
2021/09/30 14:20:57;;;;;;;;;0.00;0.00;;;;;19.34;41.01;102188.38;4913878;28;46225;-60
2021/09/30 14:23:23;;;;;;;;;0.00;0.00;;;;;19.39;40.55;102177.34;4915813;28;45264;-60
2021/09/30 14:25:49;;;;;;;;;0.00;0.00;;;;;19.43;40.22;102173.47;4913471;28;45307;-59